createdAt,value
2018-07-25T00:00:01.037Z,22.41
2018-07-25T00:01:01.235Z,22.4
2018-07-25T00:02:01.120Z,22.41
2018-07-25T00:03:01.000Z,22.4
2018-07-25T00:04:01.029Z,22.39
2018-07-25T00:05:01.079Z,22.38
2018-07-25T00:06:00.991Z,22.38
2018-07-25T00:07:01.293Z,22.38
2018-07-25T00:08:00.950Z,22.39
2018-07-25T00:09:01.142Z,22.38
2018-07-25T00:10:01.022Z,22.39
2018-07-25T00:11:01.262Z,22.38
2018-07-25T00:12:01.054Z,22.38
2018-07-25T00:13:01.041Z,22.37
2018-07-25T00:14:01.158Z,22.38
2018-07-25T00:15:01.066Z,22.39
2018-07-25T00:16:01.338Z,22.38
2018-07-25T00:17:01.144Z,22.36
2018-07-25T00:18:01.230Z,22.38
2018-07-25T00:19:01.071Z,22.38
2018-07-25T00:20:01.045Z,22.38
2018-07-25T00:21:01.143Z,22.39
2018-07-25T00:22:01.136Z,22.38
2018-07-25T00:23:01.179Z,22.38
2018-07-25T00:24:01.007Z,22.4
2018-07-25T00:25:01.138Z,22.38
2018-07-25T00:26:01.227Z,22.39
2018-07-25T00:27:01.241Z,22.39
2018-07-25T00:28:01.191Z,22.38
2018-07-25T00:29:01.265Z,22.37
2018-07-25T00:30:01.095Z,22.36
2018-07-25T00:31:01.308Z,22.38
2018-07-25T00:32:01.310Z,22.38
2018-07-25T00:33:01.000Z,22.36
2018-07-25T00:34:01.180Z,22.38
2018-07-25T00:35:01.182Z,22.37
2018-07-25T00:36:01.041Z,22.36
2018-07-25T00:37:01.183Z,22.37
2018-07-25T00:38:01.084Z,22.38
2018-07-25T00:39:01.121Z,22.37
2018-07-25T00:40:01.099Z,22.38
2018-07-25T00:41:01.207Z,22.36
2018-07-25T00:42:01.038Z,22.36
2018-07-25T00:43:01.367Z,22.35
2018-07-25T00:44:01.094Z,22.36
2018-07-25T00:45:01.339Z,22.38
2018-07-25T00:46:01.480Z,22.38
2018-07-25T00:47:01.083Z,22.36
2018-07-25T00:48:01.096Z,22.39
2018-07-25T00:49:01.012Z,22.38
2018-07-25T00:50:00.924Z,22.39
2018-07-25T00:51:01.173Z,22.36
2018-07-25T00:52:01.207Z,22.38
2018-07-25T00:53:01.337Z,22.37
2018-07-25T00:54:01.281Z,22.37
2018-07-25T00:55:01.213Z,22.36
2018-07-25T00:56:01.259Z,22.38
2018-07-25T00:57:01.337Z,22.35
2018-07-25T00:58:01.306Z,22.35
2018-07-25T00:59:01.177Z,22.37
2018-07-25T01:00:01.133Z,22.35
2018-07-25T01:01:01.060Z,22.36
2018-07-25T01:02:00.994Z,22.37
2018-07-25T01:03:01.156Z,22.37
2018-07-25T01:04:01.211Z,22.36
2018-07-25T01:05:01.138Z,22.35
2018-07-25T01:06:01.284Z,22.36
2018-07-25T01:07:01.249Z,22.38
2018-07-25T01:08:01.011Z,22.38
2018-07-25T01:09:00.966Z,22.35
2018-07-25T01:10:01.163Z,22.38
2018-07-25T01:11:01.111Z,22.36
2018-07-25T01:12:01.205Z,22.37
2018-07-25T01:13:01.128Z,22.37
2018-07-25T01:14:01.098Z,22.38
2018-07-25T01:15:01.083Z,22.38
2018-07-25T01:16:01.049Z,22.37
2018-07-25T01:17:01.023Z,22.36
2018-07-25T01:18:01.035Z,22.35
2018-07-25T01:19:01.050Z,22.36
2018-07-25T01:20:01.054Z,22.36
2018-07-25T01:21:01.208Z,22.37
2018-07-25T01:22:01.093Z,22.38
2018-07-25T01:23:01.295Z,22.35
2018-07-25T01:24:01.246Z,22.37
2018-07-25T01:25:01.039Z,22.35
2018-07-25T01:26:01.062Z,22.34
2018-07-25T01:27:00.960Z,22.35
2018-07-25T01:28:01.191Z,22.36
2018-07-25T01:29:01.160Z,22.36
2018-07-25T01:30:01.277Z,22.35
2018-07-25T01:31:01.167Z,22.35
2018-07-25T01:32:01.280Z,22.37
2018-07-25T01:33:00.939Z,22.37
2018-07-25T01:34:01.069Z,22.36
2018-07-25T01:35:01.067Z,22.37
2018-07-25T01:36:00.976Z,22.35
2018-07-25T01:37:01.095Z,22.35
2018-07-25T01:38:01.225Z,22.35
2018-07-25T01:39:01.014Z,22.35
2018-07-25T01:40:01.025Z,22.35
2018-07-25T01:41:01.345Z,22.35
2018-07-25T01:42:01.136Z,22.37
2018-07-25T01:43:01.108Z,22.37
2018-07-25T01:44:01.104Z,22.37
2018-07-25T01:45:01.110Z,22.34
2018-07-25T01:46:01.213Z,22.36
2018-07-25T01:47:01.451Z,22.34
2018-07-25T01:48:01.012Z,22.34
2018-07-25T01:49:01.431Z,22.36
2018-07-25T01:50:01.314Z,22.33
2018-07-25T01:51:01.234Z,22.34
2018-07-25T01:52:01.254Z,22.35
2018-07-25T01:53:01.096Z,22.33
2018-07-25T01:54:00.930Z,22.36
2018-07-25T01:55:01.220Z,22.35
2018-07-25T01:56:01.161Z,22.35
2018-07-25T01:57:00.979Z,22.36
2018-07-25T01:58:01.407Z,22.35
2018-07-25T01:59:01.156Z,22.35
2018-07-25T02:00:01.033Z,22.37
2018-07-25T02:01:00.937Z,22.35
2018-07-25T02:02:01.264Z,22.35
2018-07-25T02:03:00.924Z,22.35
2018-07-25T02:04:01.274Z,22.34
2018-07-25T02:05:01.242Z,22.35
2018-07-25T02:06:01.086Z,22.36
2018-07-25T02:07:01.160Z,22.35
2018-07-25T02:08:01.423Z,22.33
2018-07-25T02:09:01.103Z,22.35
2018-07-25T02:10:01.157Z,22.34
2018-07-25T02:11:01.162Z,22.34
2018-07-25T02:12:00.965Z,22.33
2018-07-25T02:13:01.052Z,22.35
2018-07-25T02:14:01.252Z,22.34
2018-07-25T02:15:01.156Z,22.35
2018-07-25T02:16:01.280Z,22.36
2018-07-25T02:17:01.192Z,22.37
2018-07-25T02:18:01.222Z,22.35
2018-07-25T02:19:01.177Z,22.35
2018-07-25T02:20:01.274Z,22.33
2018-07-25T02:21:01.006Z,22.37
2018-07-25T02:22:01.224Z,22.33
2018-07-25T02:23:01.242Z,22.35
2018-07-25T02:24:01.234Z,22.33
2018-07-25T02:25:01.060Z,22.34
2018-07-25T02:26:00.964Z,22.33
2018-07-25T02:27:01.031Z,22.35
2018-07-25T02:28:01.142Z,22.35
2018-07-25T02:29:01.143Z,22.34
2018-07-25T02:30:01.021Z,22.36
2018-07-25T02:31:01.175Z,22.34
2018-07-25T02:32:01.063Z,22.33
2018-07-25T02:33:01.041Z,22.34
2018-07-25T02:34:00.994Z,22.33
2018-07-25T02:35:01.189Z,22.35
2018-07-25T02:36:00.972Z,22.34
2018-07-25T02:37:01.370Z,22.35
2018-07-25T02:38:01.280Z,22.34
2018-07-25T02:39:01.021Z,22.35
2018-07-25T02:40:01.123Z,22.34
2018-07-25T02:41:01.110Z,22.33
2018-07-25T02:42:01.015Z,22.34
2018-07-25T02:43:01.139Z,22.34
2018-07-25T02:44:01.134Z,22.33
2018-07-25T02:45:01.195Z,22.33
2018-07-25T02:46:01.199Z,22.33
2018-07-25T02:47:01.478Z,22.34
2018-07-25T02:48:00.973Z,22.34
2018-07-25T02:49:01.130Z,22.33
2018-07-25T02:50:01.122Z,22.35
2018-07-25T02:51:01.195Z,22.34
2018-07-25T02:52:01.210Z,22.34
2018-07-25T02:53:00.941Z,22.35
2018-07-25T02:54:01.140Z,22.35
2018-07-25T02:55:01.132Z,22.35
2018-07-25T02:56:01.019Z,22.33
2018-07-25T02:57:01.801Z,22.34
2018-07-25T02:58:01.036Z,22.34
2018-07-25T02:59:01.218Z,22.33
2018-07-25T03:00:01.187Z,22.35
2018-07-25T03:01:01.213Z,22.34
2018-07-25T03:02:01.737Z,22.35
2018-07-25T03:03:01.101Z,22.35
2018-07-25T03:04:00.987Z,22.35
2018-07-25T03:05:01.137Z,22.34
2018-07-25T03:06:00.983Z,22.34
2018-07-25T03:07:01.624Z,22.34
2018-07-25T03:08:01.405Z,22.35
2018-07-25T03:09:02.297Z,22.34
2018-07-25T03:10:01.360Z,22.34
2018-07-25T03:11:01.201Z,22.34
2018-07-25T03:12:01.216Z,22.35
2018-07-25T03:13:01.083Z,22.35
2018-07-25T03:14:01.158Z,22.33
2018-07-25T03:15:01.109Z,22.33
2018-07-25T03:16:01.147Z,22.35
2018-07-25T03:17:01.214Z,22.33
2018-07-25T03:18:01.178Z,22.34
2018-07-25T03:19:01.308Z,22.34
2018-07-25T03:20:01.469Z,22.35
2018-07-25T03:21:01.278Z,22.33
2018-07-25T03:22:01.056Z,22.35
2018-07-25T03:23:01.069Z,22.33
2018-07-25T03:24:00.928Z,22.33
2018-07-25T03:25:02.110Z,22.34
2018-07-25T03:26:00.996Z,22.34
2018-07-25T03:27:01.090Z,22.35
2018-07-25T03:28:01.099Z,22.33
2018-07-25T03:29:01.524Z,22.35
2018-07-25T03:30:01.072Z,22.33
2018-07-25T03:31:01.091Z,22.33
2018-07-25T03:32:01.221Z,22.34
2018-07-25T03:33:01.002Z,22.33
2018-07-25T03:34:01.527Z,22.34
2018-07-25T03:35:01.073Z,22.33
2018-07-25T03:36:01.378Z,22.33
2018-07-25T03:37:01.225Z,22.33
2018-07-25T03:38:01.557Z,22.33
2018-07-25T03:39:01.258Z,22.34
2018-07-25T03:40:01.175Z,22.33
2018-07-25T03:41:00.945Z,22.33
2018-07-25T03:42:11.100Z,22.32
2018-07-25T03:43:01.285Z,22.31
2018-07-25T03:44:01.045Z,22.35
2018-07-25T03:45:01.132Z,22.32
2018-07-25T03:46:01.255Z,22.33
2018-07-25T03:47:00.925Z,22.33
2018-07-25T03:48:01.081Z,22.34
2018-07-25T03:49:01.007Z,22.33
2018-07-25T03:50:01.054Z,22.35
2018-07-25T03:51:01.120Z,22.34
2018-07-25T03:52:01.050Z,22.34
2018-07-25T03:53:01.086Z,22.34
2018-07-25T03:54:01.016Z,22.33
2018-07-25T03:55:01.171Z,22.33
2018-07-25T03:56:00.960Z,22.33
2018-07-25T03:57:00.999Z,22.33
2018-07-25T03:58:00.883Z,22.34
2018-07-25T03:59:01.154Z,22.33
2018-07-25T04:00:01.111Z,22.32
2018-07-25T04:01:00.996Z,22.33
2018-07-25T04:02:01.693Z,22.33
2018-07-25T04:03:01.324Z,22.34
2018-07-25T04:04:01.123Z,22.33
2018-07-25T04:05:00.907Z,22.32
2018-07-25T04:06:01.191Z,22.34
2018-07-25T04:07:01.046Z,22.33
2018-07-25T04:08:01.129Z,22.32
2018-07-25T04:09:01.221Z,22.33
2018-07-25T04:10:01.105Z,22.32
2018-07-25T04:11:01.003Z,22.33
2018-07-25T04:12:01.120Z,22.32
2018-07-25T04:13:00.966Z,22.31
2018-07-25T04:14:01.006Z,22.33
2018-07-25T04:15:01.083Z,22.32
2018-07-25T04:16:01.245Z,22.34
2018-07-25T04:17:01.171Z,22.33
2018-07-25T04:18:01.243Z,22.32
2018-07-25T04:19:00.822Z,22.29
2018-07-25T04:20:01.115Z,22.33
2018-07-25T04:21:01.128Z,22.31
2018-07-25T04:22:01.225Z,22.32
2018-07-25T04:23:00.989Z,22.33
2018-07-25T04:24:01.012Z,22.32
2018-07-25T04:25:01.144Z,22.33
2018-07-25T04:26:00.984Z,22.31
2018-07-25T04:27:00.999Z,22.33
2018-07-25T04:28:00.977Z,22.33
2018-07-25T04:29:01.048Z,22.34
2018-07-25T04:30:01.138Z,22.31
2018-07-25T04:31:01.159Z,22.33
2018-07-25T04:32:00.949Z,22.32
2018-07-25T04:33:01.233Z,22.32
2018-07-25T04:34:01.017Z,22.31
2018-07-25T04:35:01.002Z,22.31
2018-07-25T04:36:01.315Z,22.33
2018-07-25T04:37:01.099Z,22.31
2018-07-25T04:38:01.185Z,22.32
2018-07-25T04:39:01.230Z,22.31
2018-07-25T04:40:01.138Z,22.31
2018-07-25T04:41:00.925Z,22.31
2018-07-25T04:42:01.167Z,22.32
2018-07-25T04:43:01.226Z,22.31
2018-07-25T04:44:00.953Z,22.32
2018-07-25T04:45:01.104Z,22.31
2018-07-25T04:46:01.609Z,22.31
2018-07-25T04:47:01.194Z,22.32
2018-07-25T04:48:01.072Z,22.32
2018-07-25T04:49:01.184Z,22.32
2018-07-25T04:50:00.965Z,22.29
2018-07-25T04:51:01.114Z,22.32
2018-07-25T04:52:01.140Z,22.33
2018-07-25T04:53:01.184Z,22.33
2018-07-25T04:54:01.002Z,22.29
2018-07-25T04:55:01.029Z,22.33
2018-07-25T04:56:01.135Z,22.31
2018-07-25T04:57:01.025Z,22.28
2018-07-25T04:58:01.164Z,22.31
2018-07-25T04:59:00.891Z,22.33
2018-07-25T05:00:01.086Z,22.32
2018-07-25T05:01:00.885Z,22.31
2018-07-25T05:02:01.040Z,22.31
2018-07-25T05:03:01.043Z,22.31
2018-07-25T05:04:01.011Z,22.34
2018-07-25T05:05:00.907Z,22.31
2018-07-25T05:06:01.082Z,22.33
2018-07-25T05:07:01.222Z,22.33
2018-07-25T05:08:00.919Z,22.32
2018-07-25T05:09:01.162Z,22.33
2018-07-25T05:10:00.931Z,22.31
2018-07-25T05:11:01.057Z,22.32
2018-07-25T05:12:01.131Z,22.32
2018-07-25T05:13:01.131Z,22.32
2018-07-25T05:14:01.100Z,22.33
2018-07-25T05:15:01.129Z,22.29
2018-07-25T05:16:01.110Z,22.33
2018-07-25T05:17:01.044Z,22.32
2018-07-25T05:18:02.338Z,22.32
2018-07-25T05:19:01.044Z,22.31
2018-07-25T05:20:01.099Z,22.33
2018-07-25T05:21:00.937Z,22.32
2018-07-25T05:22:01.150Z,22.32
2018-07-25T05:23:00.984Z,22.32
2018-07-25T05:24:01.248Z,22.32
2018-07-25T05:25:01.184Z,22.32
2018-07-25T05:26:00.882Z,22.32
2018-07-25T05:27:01.176Z,22.33
2018-07-25T05:28:01.078Z,22.32
2018-07-25T05:29:01.185Z,22.32
2018-07-25T05:30:01.251Z,22.33
2018-07-25T05:31:01.058Z,22.32
2018-07-25T05:32:00.902Z,22.31
2018-07-25T05:33:00.832Z,22.31
2018-07-25T05:34:01.179Z,22.31
2018-07-25T05:35:00.900Z,22.33
2018-07-25T05:36:01.191Z,22.31
2018-07-25T05:37:01.074Z,22.29
2018-07-25T05:38:01.581Z,22.32
2018-07-25T05:39:01.077Z,22.33
2018-07-25T05:40:00.952Z,22.31
2018-07-25T05:41:01.046Z,22.32
2018-07-25T05:42:01.159Z,22.31
2018-07-25T05:43:01.096Z,22.29
2018-07-25T05:44:00.922Z,22.32
2018-07-25T05:45:01.062Z,22.32
2018-07-25T05:46:01.063Z,22.32
2018-07-25T05:47:01.023Z,22.31
2018-07-25T05:48:01.029Z,22.31
2018-07-25T05:49:01.117Z,22.29
2018-07-25T05:50:01.054Z,22.31
2018-07-25T05:51:01.053Z,22.31
2018-07-25T05:52:00.883Z,22.32
2018-07-25T05:53:00.944Z,22.32
2018-07-25T05:54:01.164Z,22.32
2018-07-25T05:55:01.034Z,22.31
2018-07-25T05:56:01.056Z,22.29
2018-07-25T05:57:00.967Z,22.33
2018-07-25T05:58:01.110Z,22.31
2018-07-25T05:59:00.930Z,22.32
2018-07-25T06:00:01.006Z,22.31
2018-07-25T06:01:01.019Z,22.32
2018-07-25T06:02:00.930Z,22.32
2018-07-25T06:03:02.195Z,22.32
2018-07-25T06:04:01.051Z,22.29
2018-07-25T06:05:01.055Z,22.31
2018-07-25T06:06:01.491Z,22.32
2018-07-25T06:07:00.960Z,22.32
2018-07-25T06:08:00.937Z,22.31
2018-07-25T06:09:01.022Z,22.32
2018-07-25T06:10:00.980Z,22.29
2018-07-25T06:11:01.102Z,22.31
2018-07-25T06:12:00.882Z,22.32
2018-07-25T06:13:00.952Z,22.32
2018-07-25T06:14:00.969Z,22.32
2018-07-25T06:15:01.080Z,22.33
2018-07-25T06:16:00.992Z,22.33
2018-07-25T06:17:00.951Z,22.33
2018-07-25T06:18:00.888Z,22.31
2018-07-25T06:19:01.115Z,22.32
2018-07-25T06:20:00.849Z,22.28
2018-07-25T06:21:01.010Z,22.31
2018-07-25T06:22:00.929Z,22.32
2018-07-25T06:23:00.896Z,22.31
2018-07-25T06:24:00.988Z,22.32
2018-07-25T06:25:01.097Z,22.32
2018-07-25T06:26:01.637Z,22.29
2018-07-25T06:27:00.922Z,22.32
2018-07-25T06:28:01.031Z,22.28
2018-07-25T06:29:00.862Z,22.31
2018-07-25T06:30:00.981Z,22.31
2018-07-25T06:31:01.183Z,22.29
2018-07-25T06:32:00.904Z,22.31
2018-07-25T06:33:01.100Z,22.31
2018-07-25T06:34:00.910Z,22.32
2018-07-25T06:35:01.046Z,22.32
2018-07-25T06:36:00.869Z,22.29
2018-07-25T06:37:01.037Z,22.32
2018-07-25T06:38:01.786Z,22.29
2018-07-25T06:39:00.996Z,22.32
2018-07-25T06:40:01.050Z,22.31
2018-07-25T06:41:00.877Z,22.28
2018-07-25T06:42:01.235Z,22.32
2018-07-25T06:43:01.042Z,22.32
2018-07-25T06:44:00.964Z,22.31
2018-07-25T06:45:00.910Z,22.29
2018-07-25T06:46:01.046Z,22.31
2018-07-25T06:47:01.340Z,22.29
2018-07-25T06:48:00.964Z,22.29
2018-07-25T06:49:01.050Z,22.31
2018-07-25T06:50:00.913Z,22.31
2018-07-25T06:51:01.074Z,22.32
2018-07-25T06:52:01.039Z,22.31
2018-07-25T06:53:00.904Z,22.31
2018-07-25T06:54:00.960Z,22.31
2018-07-25T06:55:01.048Z,22.31
2018-07-25T06:56:01.095Z,22.32
2018-07-25T06:57:01.271Z,22.28
2018-07-25T06:58:01.262Z,22.32
2018-07-25T06:59:01.016Z,22.32
2018-07-25T07:00:01.148Z,22.31
2018-07-25T07:01:00.986Z,22.32
2018-07-25T07:02:00.906Z,22.29
2018-07-25T07:03:01.109Z,22.32
2018-07-25T07:04:00.796Z,22.32
2018-07-25T07:05:01.094Z,22.32
2018-07-25T07:06:01.134Z,22.29
2018-07-25T07:07:01.965Z,22.31
2018-07-25T07:08:00.992Z,22.28
2018-07-25T07:09:00.883Z,22.31
2018-07-25T07:10:01.010Z,22.32
2018-07-25T07:11:01.138Z,22.29
2018-07-25T07:12:01.317Z,22.31
2018-07-25T07:13:01.054Z,22.31
2018-07-25T07:14:01.225Z,22.32
2018-07-25T07:15:01.209Z,22.33
2018-07-25T07:16:01.025Z,22.29
2018-07-25T07:17:00.825Z,22.32
2018-07-25T07:18:01.150Z,22.29
2018-07-25T07:19:01.146Z,22.28
2018-07-25T07:20:00.955Z,22.31
2018-07-25T07:21:00.990Z,22.33
2018-07-25T07:22:00.861Z,22.29
2018-07-25T07:23:01.146Z,22.29
2018-07-25T07:24:01.662Z,22.31
2018-07-25T07:25:00.903Z,22.31
2018-07-25T07:26:01.058Z,22.32
2018-07-25T07:27:00.942Z,22.32
2018-07-25T07:28:00.926Z,22.29
2018-07-25T07:29:00.949Z,22.31
2018-07-25T07:30:01.100Z,22.32
2018-07-25T07:31:01.051Z,22.33
2018-07-25T07:32:00.968Z,22.32
2018-07-25T07:33:01.020Z,22.28
2018-07-25T07:34:01.088Z,22.32
2018-07-25T07:35:01.334Z,22.31
2018-07-25T07:36:01.063Z,22.33
2018-07-25T07:37:01.044Z,22.32
2018-07-25T07:38:00.914Z,22.29
2018-07-25T07:39:01.111Z,22.32
2018-07-25T07:40:01.073Z,22.31
2018-07-25T07:41:00.984Z,22.31
2018-07-25T07:42:01.010Z,22.31
2018-07-25T07:43:00.945Z,22.32
2018-07-25T07:44:11.408Z,22.28
2018-07-25T07:45:00.959Z,22.32
2018-07-25T07:46:00.863Z,22.31
2018-07-25T07:47:01.100Z,22.31
2018-07-25T07:48:01.062Z,22.32
2018-07-25T07:49:01.099Z,22.32
2018-07-25T07:50:01.135Z,22.31
2018-07-25T07:51:01.150Z,22.31
2018-07-25T07:52:00.920Z,22.31
2018-07-25T07:53:00.999Z,22.29
2018-07-25T07:54:01.592Z,22.31
2018-07-25T07:55:01.080Z,22.31
2018-07-25T07:56:00.975Z,22.32
2018-07-25T07:57:01.069Z,22.31
2018-07-25T07:58:00.874Z,22.31
2018-07-25T07:59:01.084Z,22.29
2018-07-25T08:00:01.035Z,22.33
2018-07-25T08:01:00.971Z,22.35
2018-07-25T08:02:00.975Z,22.36
2018-07-25T08:03:01.168Z,22.38
2018-07-25T08:04:00.970Z,22.38
2018-07-25T08:05:01.551Z,22.39
2018-07-25T08:06:00.977Z,22.4
2018-07-25T08:07:00.815Z,22.41
2018-07-25T08:08:01.019Z,22.39
2018-07-25T08:09:01.025Z,22.42
2018-07-25T08:10:01.034Z,22.42
2018-07-25T08:11:01.112Z,22.42
2018-07-25T08:12:00.996Z,22.46
2018-07-25T08:13:00.962Z,22.44
2018-07-25T08:14:00.991Z,22.46
2018-07-25T08:15:01.237Z,22.47
2018-07-25T08:16:00.814Z,22.48
2018-07-25T08:17:00.956Z,22.48
2018-07-25T08:18:01.614Z,22.5
2018-07-25T08:19:01.274Z,22.52
2018-07-25T08:20:01.536Z,22.51
2018-07-25T08:21:01.762Z,22.51
2018-07-25T08:22:00.960Z,22.55
2018-07-25T08:23:00.904Z,22.53
2018-07-25T08:24:00.975Z,22.54
2018-07-25T08:25:01.011Z,22.51
2018-07-25T08:26:01.037Z,22.52
2018-07-25T08:27:00.992Z,22.49
2018-07-25T08:28:00.996Z,22.47
2018-07-25T08:29:01.058Z,22.48
2018-07-25T08:30:01.103Z,22.46
2018-07-25T08:31:01.076Z,22.46
2018-07-25T08:32:01.151Z,22.46
2018-07-25T08:33:01.154Z,22.47
2018-07-25T08:34:00.941Z,22.44
2018-07-25T08:35:01.036Z,22.47
2018-07-25T08:36:01.225Z,22.43
2018-07-25T08:37:01.109Z,22.43
2018-07-25T08:38:00.990Z,22.42
2018-07-25T08:39:01.015Z,22.43
2018-07-25T08:40:01.067Z,22.44
2018-07-25T08:41:01.095Z,22.43
2018-07-25T09:41:27.381Z,22.12
2018-07-25T09:42:27.487Z,22.13
2018-07-25T09:43:27.792Z,22.14
2018-07-25T09:44:29.344Z,22.14
2018-07-25T09:46:28.203Z,22.13
2018-07-25T09:47:27.610Z,22.14
2018-07-25T09:48:27.335Z,22.14
2018-07-25T09:49:27.447Z,22.19
2018-07-25T09:51:28.758Z,22.18
2018-07-25T09:54:27.511Z,22.17
2018-07-25T09:55:27.427Z,22.2
2018-07-25T09:56:27.328Z,22.19
2018-07-25T09:57:27.378Z,22.2
2018-07-25T09:59:29.826Z,22.2
2018-07-25T10:00:27.283Z,22.21
2018-07-25T10:01:27.197Z,22.21
2018-07-25T10:04:27.219Z,22.22
2018-07-25T10:06:29.027Z,22.23
2018-07-25T10:07:27.822Z,22.23
2018-07-25T10:08:27.412Z,22.24
2018-07-25T10:09:27.280Z,22.24
2018-07-25T10:11:27.375Z,22.26
2018-07-25T10:12:27.245Z,22.24
2018-07-25T10:13:27.492Z,22.25
2018-07-25T10:14:29.886Z,22.24
2018-07-25T10:16:27.341Z,22.25
2018-07-25T10:17:27.400Z,22.25
2018-07-25T10:18:27.353Z,22.25
2018-07-25T10:19:27.350Z,22.27
2018-07-25T10:21:29.192Z,22.27
2018-07-25T10:22:27.562Z,22.27
2018-07-25T10:24:27.419Z,22.28
2018-07-25T10:25:27.420Z,22.28
2018-07-25T10:26:27.586Z,22.25
2018-07-25T10:27:28.134Z,22.29
2018-07-25T10:29:29.960Z,22.29
2018-07-25T10:30:27.489Z,22.29
2018-07-25T10:31:27.362Z,22.28
2018-07-25T10:34:27.382Z,22.31
2018-07-25T10:36:29.608Z,22.31
2018-07-25T10:37:27.481Z,22.28
2018-07-25T10:38:27.414Z,22.29
2018-07-25T10:41:27.347Z,22.32
2018-07-25T10:42:27.913Z,22.31
2018-07-25T10:43:27.586Z,22.31
2018-07-25T10:46:27.293Z,22.33
2018-07-25T10:47:27.299Z,22.29
2018-07-25T10:48:27.322Z,22.31
2018-07-25T10:49:27.336Z,22.31
2018-07-25T10:51:28.915Z,22.32
2018-07-25T10:53:27.409Z,22.29
2018-07-25T10:54:27.498Z,22.31
2018-07-25T10:55:27.437Z,22.33
2018-07-25T10:56:27.633Z,22.33
2018-07-25T10:58:27.483Z,22.33
2018-07-25T10:59:29.869Z,22.31
2018-07-25T11:00:27.409Z,22.32
2018-07-25T11:01:27.535Z,22.33
2018-07-25T11:04:27.682Z,22.36
2018-07-25T11:05:27.377Z,22.4
2018-07-25T11:06:29.157Z,22.39
2018-07-25T11:08:27.310Z,22.36
2018-07-25T11:09:27.324Z,22.38
2018-07-25T11:10:27.453Z,22.37
2018-07-25T11:11:27.744Z,22.38
2018-07-25T11:14:27.302Z,22.38
2018-07-25T11:15:29.735Z,22.35
2018-07-25T11:16:28.549Z,22.36
2018-07-25T11:19:27.744Z,22.35
2018-07-25T11:20:27.598Z,22.36
2018-07-25T11:21:27.697Z,22.35
2018-07-25T11:22:28.417Z,22.36
2018-07-25T11:24:27.316Z,22.34
2018-07-25T11:26:27.465Z,22.36
2018-07-25T11:27:27.351Z,22.37
2018-07-25T11:28:27.299Z,22.36
2018-07-25T11:29:28.110Z,22.35
2018-07-25T11:31:27.278Z,22.36
2018-07-25T11:32:27.516Z,22.34
2018-07-25T11:33:27.580Z,22.37
2018-07-25T11:34:27.364Z,22.35
2018-07-25T11:36:27.231Z,22.35
2018-07-25T11:37:27.220Z,22.35
2018-07-25T11:38:27.261Z,22.37
2018-07-25T11:39:27.234Z,22.35
2018-07-25T11:41:27.279Z,22.36
2018-07-25T11:42:27.252Z,22.36
2018-07-25T11:43:27.260Z,22.37
2018-07-25T11:44:27.253Z,22.35
2018-07-25T11:46:27.253Z,22.34
2018-07-25T11:48:27.216Z,22.35
2018-07-25T11:49:27.230Z,22.37
2018-07-25T11:50:27.906Z,22.35
2018-07-25T11:52:27.253Z,22.35
2018-07-25T11:53:27.258Z,22.35
2018-07-25T11:54:27.257Z,22.36
2018-07-25T11:55:27.999Z,22.37
2018-07-25T11:57:27.248Z,22.35
2018-07-25T11:58:27.302Z,22.37
2018-07-25T11:59:27.201Z,22.36
2018-07-25T12:00:27.219Z,22.36
2018-07-25T12:02:27.359Z,22.35
2018-07-25T12:03:27.321Z,22.37
2018-07-25T12:04:27.257Z,22.37
2018-07-25T12:05:27.149Z,22.37
2018-07-25T12:08:27.398Z,22.35
2018-07-25T12:09:29.381Z,22.37
2018-07-25T12:10:27.302Z,22.36
2018-07-25T12:11:27.383Z,22.36
2018-07-25T12:13:27.503Z,22.36
2018-07-25T12:14:27.358Z,22.37
2018-07-25T12:15:27.325Z,22.39
2018-07-25T12:16:27.313Z,22.37
2018-07-25T12:19:27.320Z,22.38
2018-07-25T12:20:27.527Z,22.36
2018-07-25T12:21:27.276Z,22.36
2018-07-25T12:24:29.819Z,22.39
2018-07-25T12:25:27.310Z,22.38
2018-07-25T12:26:27.970Z,22.35
2018-07-25T12:29:27.331Z,22.38
2018-07-25T12:30:27.289Z,22.36
2018-07-25T12:31:29.614Z,22.38
2018-07-25T12:35:27.462Z,22.36
2018-07-25T12:36:27.324Z,22.36
2018-07-25T12:37:27.412Z,22.36
2018-07-25T12:38:27.811Z,22.36
2018-07-25T12:40:27.242Z,22.38
2018-07-25T12:41:27.366Z,22.36
2018-07-25T12:42:27.445Z,22.37
2018-07-25T12:43:27.277Z,22.37
2018-07-25T12:46:29.362Z,22.38
2018-07-25T12:48:28.023Z,22.41
2018-07-25T12:51:27.284Z,22.46
2018-07-25T12:52:27.347Z,22.47
2018-07-25T12:53:29.187Z,22.48
2018-07-25T12:55:27.156Z,22.53
2018-07-25T12:56:27.315Z,22.53
2018-07-25T12:57:27.258Z,22.53
2018-07-25T12:58:27.302Z,22.52
2018-07-25T13:00:27.969Z,22.52
2018-07-25T13:01:27.302Z,22.52
2018-07-25T13:02:27.326Z,22.53
2018-07-25T13:03:27.287Z,22.51
2018-07-25T13:05:27.348Z,22.52
2018-07-25T13:06:27.162Z,22.5
2018-07-25T13:07:27.335Z,22.5
2018-07-25T13:08:29.785Z,22.51
2018-07-25T13:10:27.902Z,22.48
2018-07-25T13:11:27.411Z,22.49
2018-07-25T13:12:27.382Z,22.47
2018-07-25T13:13:27.480Z,22.46
2018-07-25T13:17:27.433Z,22.46
2018-07-25T13:18:27.301Z,22.43
2018-07-25T13:19:27.377Z,22.44
2018-07-25T13:20:27.404Z,22.46
2018-07-25T13:22:27.490Z,22.42
2018-07-25T13:23:29.925Z,22.44
2018-07-25T13:24:27.303Z,22.44
2018-07-25T13:25:27.461Z,22.43
2018-07-25T13:28:28.514Z,22.42
2018-07-25T13:29:27.281Z,22.43
2018-07-25T13:30:28.755Z,22.44
2018-07-25T13:33:27.306Z,22.42
2018-07-25T13:34:27.549Z,22.41
2018-07-25T13:35:27.449Z,22.42
2018-07-25T13:36:27.232Z,22.42
2018-07-25T13:38:30.137Z,22.42
2018-07-25T13:39:27.380Z,22.42
2018-07-25T13:40:27.318Z,22.42
2018-07-25T13:42:27.321Z,22.42
2018-07-25T13:43:27.289Z,22.42
2018-07-25T13:44:27.317Z,22.42
2018-07-25T13:45:29.675Z,22.41
2018-07-25T13:48:27.239Z,22.42
2018-07-25T13:49:27.300Z,22.42
2018-07-25T13:50:27.278Z,22.41
2018-07-25T13:51:27.474Z,22.42
2018-07-25T13:53:27.287Z,22.42
2018-07-25T13:54:27.347Z,22.42
2018-07-25T13:55:27.315Z,22.42
2018-07-25T13:56:27.308Z,22.42
2018-07-25T13:58:27.413Z,22.41
2018-07-25T13:59:27.359Z,22.41
2018-07-25T14:00:29.145Z,22.42
2018-07-25T14:01:27.116Z,22.41
2018-07-25T14:03:27.249Z,22.42
2018-07-25T14:04:27.346Z,22.41
2018-07-25T14:05:27.299Z,22.41
2018-07-25T14:06:27.232Z,22.41
2018-07-25T14:08:27.455Z,22.42
2018-07-25T14:10:27.260Z,22.42
2018-07-25T14:11:27.847Z,22.39
2018-07-25T14:12:27.263Z,22.41
2018-07-25T14:13:27.266Z,22.4
2018-07-25T14:16:27.310Z,22.39
2018-07-25T14:17:27.167Z,22.41
2018-07-25T14:19:27.277Z,22.41
2018-07-25T14:20:27.305Z,22.4
2018-07-25T14:21:27.253Z,22.41
2018-07-25T14:22:29.459Z,22.41
2018-07-25T14:24:28.235Z,22.41
2018-07-25T14:25:27.195Z,22.41
2018-07-25T14:27:27.536Z,22.43
2018-07-25T14:28:27.408Z,22.41
2018-07-25T14:29:28.195Z,22.41
2018-07-25T14:31:27.338Z,22.41
2018-07-25T14:32:27.312Z,22.42
2018-07-25T14:33:27.598Z,22.4
2018-07-25T14:34:27.408Z,22.42
2018-07-25T14:36:27.537Z,22.4
2018-07-25T14:37:29.708Z,22.41
2018-07-25T14:38:27.330Z,22.41
2018-07-25T14:39:27.250Z,22.42
2018-07-25T14:41:27.219Z,22.41
2018-07-25T14:42:27.234Z,22.41
2018-07-25T14:43:27.514Z,22.42
2018-07-25T14:44:29.601Z,22.4
2018-07-25T14:46:27.255Z,22.4
2018-07-25T14:47:27.255Z,22.41
2018-07-25T14:48:27.206Z,22.4
2018-07-25T14:49:27.264Z,22.4
2018-07-25T14:51:28.320Z,22.4
2018-07-25T14:54:28.188Z,22.43
2018-07-25T14:55:27.315Z,22.42
2018-07-25T14:57:27.310Z,22.42
2018-07-25T14:58:27.171Z,22.42
2018-07-25T14:59:29.941Z,22.4
2018-07-25T15:00:27.258Z,22.42
2018-07-25T15:02:28.271Z,22.41
2018-07-25T15:03:27.255Z,22.42
2018-07-25T15:04:27.356Z,22.42
2018-07-25T15:06:29.079Z,22.41
2018-07-25T15:07:27.243Z,22.41
2018-07-25T15:09:27.319Z,22.42
2018-07-25T15:10:27.268Z,22.43
2018-07-25T15:11:27.442Z,22.42
2018-07-25T15:15:27.342Z,22.4
2018-07-25T15:16:27.392Z,22.42
2018-07-25T15:17:27.374Z,22.42
2018-07-25T15:20:27.298Z,22.42
2018-07-25T15:21:29.099Z,22.42
2018-07-25T15:22:27.363Z,22.41
2018-07-25T15:23:27.113Z,22.43
2018-07-25T15:25:27.260Z,22.42
2018-07-25T15:27:27.490Z,22.42
2018-07-25T15:28:29.559Z,22.42
2018-07-25T15:29:28.168Z,22.41
2018-07-25T15:32:27.280Z,22.43
2018-07-25T15:33:27.256Z,22.41
2018-07-25T15:34:27.433Z,22.42
2018-07-25T15:35:27.263Z,22.41
2018-07-25T15:37:27.388Z,22.43